createdAt,value
2022-08-26T00:00:19.156Z,17.84
2022-08-26T00:01:18.602Z,17.86
2022-08-26T00:02:22.978Z,17.84
2022-08-26T00:03:18.945Z,17.8
2022-08-26T00:04:18.708Z,17.8
2022-08-26T00:05:18.391Z,17.79
2022-08-26T00:06:23.326Z,17.81
2022-08-26T00:07:18.364Z,17.81
2022-08-26T00:08:18.385Z,17.69
2022-08-26T00:09:20.824Z,17.74
2022-08-26T00:10:19.777Z,17.73
2022-08-26T00:11:29.101Z,17.74
2022-08-26T00:12:18.598Z,17.73
2022-08-26T00:13:21.639Z,17.62
2022-08-26T00:14:18.675Z,17.69
2022-08-26T00:15:18.575Z,17.63
2022-08-26T00:16:18.220Z,17.65
2022-08-26T00:17:18.368Z,17.69
2022-08-26T00:18:28.069Z,17.57
2022-08-26T00:19:19.282Z,17.62
2022-08-26T00:20:18.773Z,17.58
2022-08-26T00:21:18.296Z,17.55
2022-08-26T00:22:26.893Z,17.57
2022-08-26T00:23:18.597Z,17.6
2022-08-26T00:24:18.048Z,17.58
2022-08-26T00:25:21.562Z,17.6
2022-08-26T00:26:18.529Z,17.5
2022-08-26T00:27:19.433Z,17.6
2022-08-26T00:28:21.544Z,17.62
2022-08-26T00:29:21.197Z,17.57
2022-08-26T00:30:24.903Z,17.5
2022-08-26T00:31:18.795Z,17.58
2022-08-26T00:32:20.110Z,17.47
2022-08-26T00:33:20.865Z,17.5
2022-08-26T00:34:21.642Z,17.47
2022-08-26T00:35:18.478Z,17.46
2022-08-26T00:36:24.890Z,17.54
2022-08-26T00:37:20.618Z,17.52
2022-08-26T00:38:18.201Z,17.54
2022-08-26T00:39:18.934Z,17.58
2022-08-26T00:40:18.106Z,17.54
2022-08-26T00:41:19.483Z,17.47
2022-08-26T00:42:18.012Z,17.47
2022-08-26T00:43:22.394Z,17.57
2022-08-26T00:44:18.171Z,17.5
2022-08-26T00:45:18.167Z,17.46
2022-08-26T00:46:19.178Z,17.43
2022-08-26T00:47:21.911Z,17.43
2022-08-26T00:48:18.232Z,17.45
2022-08-26T00:49:18.759Z,17.38
2022-08-26T00:50:19.992Z,17.31
2022-08-26T00:51:18.135Z,17.3
2022-08-26T00:52:20.442Z,17.3
2022-08-26T00:53:18.125Z,17.35
2022-08-26T00:54:18.143Z,17.25
2022-08-26T00:55:24.437Z,17.27
2022-08-26T00:56:18.107Z,17.3
2022-08-26T00:57:21.784Z,17.24
2022-08-26T00:58:18.093Z,17.28
2022-08-26T00:59:20.069Z,17.21
2022-08-26T01:00:18.339Z,17.24
2022-08-26T01:01:18.303Z,17.28
2022-08-26T01:02:25.422Z,17.24
2022-08-26T01:03:18.554Z,17.28
2022-08-26T01:04:18.057Z,17.21
2022-08-26T01:05:18.573Z,17.25
2022-08-26T01:06:18.299Z,17.12
2022-08-26T01:07:18.428Z,17.21
2022-08-26T01:08:18.040Z,17.18
2022-08-26T01:09:18.045Z,17.15
2022-08-26T01:10:18.060Z,17.17
2022-08-26T01:11:18.831Z,17.1
2022-08-26T01:12:24.556Z,17.21
2022-08-26T01:13:18.265Z,17.18
2022-08-26T01:14:21.245Z,17.09
2022-08-26T01:15:18.939Z,17.13
2022-08-26T01:16:18.176Z,17.15
2022-08-26T01:17:18.239Z,17.1
2022-08-26T01:18:17.984Z,17.22
2022-08-26T01:19:18.464Z,17.2
2022-08-26T01:20:18.294Z,17.18
2022-08-26T01:21:20.068Z,17.15
2022-08-26T01:22:18.216Z,17.22
2022-08-26T01:23:17.965Z,17.18
2022-08-26T01:24:18.838Z,17.22
2022-08-26T01:25:18.193Z,17.18
2022-08-26T01:26:24.636Z,17.12
2022-08-26T01:27:17.926Z,17.07
2022-08-26T01:28:20.001Z,17.07
2022-08-26T01:29:17.665Z,17.1
2022-08-26T01:30:18.389Z,17.13
2022-08-26T01:31:19.846Z,17.02
2022-08-26T01:32:17.644Z,17.12
2022-08-26T01:33:18.187Z,17.07
2022-08-26T01:35:18.720Z,17.12
2022-08-26T01:36:18.255Z,17
2022-08-26T01:37:20.785Z,17.1
2022-08-26T01:38:17.975Z,17.06
2022-08-26T01:39:17.607Z,17.13
2022-08-26T01:40:19.055Z,17.06
2022-08-26T01:41:29.542Z,17.03
2022-08-26T01:42:17.680Z,17.07
2022-08-26T01:43:18.892Z,17.05
2022-08-26T01:44:18.085Z,17.02
2022-08-26T01:45:18.093Z,17.03
2022-08-26T01:46:18.066Z,16.91
2022-08-26T01:47:18.068Z,17.06
2022-08-26T01:48:18.064Z,16.9
2022-08-26T01:49:18.382Z,17.1
2022-08-26T01:50:30.661Z,16.99
2022-08-26T01:51:20.488Z,17.02
2022-08-26T01:52:17.881Z,16.9
2022-08-26T01:53:18.031Z,16.95
2022-08-26T01:54:22.977Z,17
2022-08-26T01:55:34.963Z,16.95
2022-08-26T01:56:17.777Z,16.91
2022-08-26T01:57:18.059Z,17
2022-08-26T01:58:17.752Z,16.94
2022-08-26T01:59:19.717Z,16.99
2022-08-26T02:00:21.012Z,16.95
2022-08-26T02:01:18.291Z,16.99
2022-08-26T02:02:17.982Z,16.95
2022-08-26T02:03:19.456Z,16.9
2022-08-26T02:04:18.123Z,16.95
2022-08-26T02:05:17.773Z,16.94
2022-08-26T02:06:18.020Z,16.85
2022-08-26T02:07:20.704Z,16.85
2022-08-26T02:08:25.349Z,16.82
2022-08-26T02:09:20.349Z,16.88
2022-08-26T02:10:19.783Z,16.87
2022-08-26T02:11:20.811Z,16.92
2022-08-26T02:12:18.897Z,16.87
2022-08-26T02:13:18.463Z,16.82
2022-08-26T02:14:18.108Z,16.82
2022-08-26T02:15:19.673Z,16.84
2022-08-26T02:16:17.920Z,16.94
2022-08-26T02:17:18.746Z,16.73
2022-08-26T02:18:19.957Z,16.82
2022-08-26T02:19:21.997Z,16.82
2022-08-26T02:20:19.832Z,16.82
2022-08-26T02:21:17.871Z,16.8
2022-08-26T02:22:18.373Z,16.69
2022-08-26T02:23:17.957Z,16.77
2022-08-26T02:24:18.012Z,16.82
2022-08-26T02:25:17.613Z,16.74
2022-08-26T02:26:22.612Z,16.81
2022-08-26T02:27:17.575Z,16.8
2022-08-26T02:28:17.834Z,16.73
2022-08-26T02:29:19.641Z,16.76
2022-08-26T02:30:19.607Z,16.74
2022-08-26T02:31:17.979Z,16.74
2022-08-26T02:32:22.959Z,16.73
2022-08-26T02:33:18.008Z,16.7
2022-08-26T02:34:19.627Z,16.69
2022-08-26T02:35:22.723Z,16.73
2022-08-26T02:36:18.092Z,16.72
2022-08-26T02:37:20.141Z,16.66
2022-08-26T02:38:18.146Z,16.74
2022-08-26T02:39:24.643Z,16.65
2022-08-26T02:40:19.464Z,16.67
2022-08-26T02:41:17.235Z,16.72
2022-08-26T02:42:18.203Z,16.69
2022-08-26T02:43:17.825Z,16.65
2022-08-26T02:44:18.200Z,16.69
2022-08-26T02:45:25.477Z,16.65
2022-08-26T02:46:32.000Z,16.69
2022-08-26T02:47:17.773Z,16.73
2022-08-26T02:48:17.446Z,16.69
2022-08-26T02:49:19.260Z,16.72
2022-08-26T02:50:18.779Z,16.72
2022-08-26T02:51:17.902Z,16.65
2022-08-26T02:52:17.213Z,16.69
2022-08-26T02:53:19.208Z,16.66
2022-08-26T02:54:18.157Z,16.69
2022-08-26T02:55:17.662Z,16.59
2022-08-26T02:56:17.786Z,16.63
2022-08-26T02:57:17.486Z,16.65
2022-08-26T02:58:17.644Z,16.58
2022-08-26T02:59:17.641Z,16.63
2022-08-26T03:00:17.373Z,16.62
2022-08-26T03:01:19.148Z,16.59
2022-08-26T03:02:18.602Z,16.59
2022-08-26T03:03:17.358Z,16.55
2022-08-26T03:04:18.668Z,16.55
2022-08-26T03:05:18.300Z,16.49
2022-08-26T03:06:17.735Z,16.47
2022-08-26T03:07:17.329Z,16.52
2022-08-26T03:08:17.591Z,16.54
2022-08-26T03:09:25.706Z,16.42
2022-08-26T03:10:17.565Z,16.48
2022-08-26T03:11:18.215Z,16.42
2022-08-26T03:12:18.791Z,16.52
2022-08-26T03:13:17.630Z,16.47
2022-08-26T03:14:18.328Z,16.51
2022-08-26T03:15:22.563Z,16.47
2022-08-26T03:16:17.691Z,16.51
2022-08-26T03:17:17.272Z,16.49
2022-08-26T03:18:17.261Z,16.45
2022-08-26T03:19:19.791Z,16.54
2022-08-26T03:20:20.254Z,16.55
2022-08-26T03:21:17.710Z,16.42
2022-08-26T03:22:19.173Z,16.42
2022-08-26T03:23:17.238Z,16.44
2022-08-26T03:24:17.290Z,16.34
2022-08-26T03:25:17.485Z,16.37
2022-08-26T03:26:17.026Z,16.4
2022-08-26T03:27:17.470Z,16.33
2022-08-26T03:28:21.663Z,16.32
2022-08-26T03:29:17.198Z,16.33
2022-08-26T03:30:19.522Z,16.4
2022-08-26T03:31:17.509Z,16.32
2022-08-26T03:32:17.178Z,16.4
2022-08-26T03:33:17.029Z,16.42
2022-08-26T03:50:17.715Z,16.39
2022-08-26T03:51:20.611Z,16.3
2022-08-26T03:52:17.700Z,16.42
2022-08-26T03:53:22.253Z,16.3
2022-08-26T03:54:17.682Z,16.34
2022-08-26T03:55:18.105Z,16.27
2022-08-26T03:56:17.926Z,16.32
2022-08-26T03:57:21.743Z,16.3
2022-08-26T03:58:17.649Z,16.3
2022-08-26T03:59:17.912Z,16.3
2022-08-26T04:00:20.988Z,16.27
2022-08-26T04:01:21.288Z,16.27
2022-08-26T04:02:19.188Z,16.29
2022-08-26T04:03:23.139Z,16.29
2022-08-26T04:04:25.053Z,16.26
2022-08-26T04:05:18.208Z,16.27
2022-08-26T04:06:19.303Z,16.18
2022-08-26T04:07:17.845Z,16.25
2022-08-26T04:08:17.569Z,16.27
2022-08-26T04:09:17.717Z,16.3
2022-08-26T04:10:22.785Z,16.25
2022-08-26T04:11:18.063Z,16.25
2022-08-26T04:12:17.560Z,16.29
2022-08-26T04:13:18.458Z,16.27
2022-08-26T04:14:22.325Z,16.27
2022-08-26T04:15:20.225Z,16.26
2022-08-26T04:16:18.571Z,16.3
2022-08-26T04:17:18.820Z,16.26
2022-08-26T04:18:18.260Z,16.34
2022-08-26T04:19:17.495Z,16.26
2022-08-26T04:20:20.590Z,16.32
2022-08-26T04:21:19.776Z,16.27
2022-08-26T04:22:26.555Z,16.3
2022-08-26T04:23:19.616Z,16.29
2022-08-26T04:24:17.887Z,16.27
2022-08-26T04:25:17.200Z,16.36
2022-08-26T04:26:17.522Z,16.42
2022-08-26T04:27:18.796Z,16.37
2022-08-26T04:28:17.982Z,16.39
2022-08-26T04:29:17.432Z,16.4
2022-08-26T04:30:19.038Z,16.54
2022-08-26T04:31:18.026Z,16.48
2022-08-26T04:32:18.605Z,16.47
2022-08-26T04:33:18.304Z,16.45
2022-08-26T04:34:18.993Z,16.48
2022-08-26T04:35:17.486Z,16.45
2022-08-26T04:36:17.643Z,16.51
2022-08-26T04:37:17.384Z,16.49
2022-08-26T04:38:17.653Z,16.49
2022-08-26T04:39:18.696Z,16.52
2022-08-26T04:40:17.520Z,16.47
2022-08-26T04:41:21.405Z,16.58
2022-08-26T04:42:22.786Z,16.58
2022-08-26T04:43:17.593Z,16.65
2022-08-26T04:44:17.590Z,16.59
2022-08-26T04:45:22.551Z,16.65
2022-08-26T04:46:18.315Z,16.66
2022-08-26T04:47:17.568Z,16.7
2022-08-26T04:48:21.603Z,16.7
2022-08-26T04:49:17.309Z,16.7
2022-08-26T04:50:17.557Z,16.73
2022-08-26T04:51:17.545Z,16.76
2022-08-26T04:52:18.306Z,16.74
2022-08-26T04:53:17.642Z,16.76
2022-08-26T04:54:18.509Z,16.81
2022-08-26T04:55:18.813Z,16.87
2022-08-26T04:56:17.261Z,16.81
2022-08-26T04:57:17.727Z,16.92
2022-08-26T04:58:17.406Z,16.87
2022-08-26T04:59:21.273Z,16.95
2022-08-26T05:00:17.531Z,16.99
2022-08-26T05:01:17.536Z,16.92
2022-08-26T05:02:17.481Z,16.9
2022-08-26T05:03:18.239Z,16.99
2022-08-26T05:04:21.330Z,17.02
2022-08-26T05:05:18.032Z,17.09
2022-08-26T05:06:21.081Z,17.06
2022-08-26T05:07:19.828Z,17.03
2022-08-26T05:08:17.901Z,17.03
2022-08-26T05:09:19.957Z,17.05
2022-08-26T05:10:20.945Z,17.09
2022-08-26T05:11:17.172Z,17.13
2022-08-26T05:12:18.620Z,17.07
2022-08-26T05:13:22.951Z,17.22
2022-08-26T05:14:17.214Z,17.2
2022-08-26T05:15:18.729Z,17.25
2022-08-26T05:16:17.950Z,17.27
2022-08-26T05:17:19.723Z,17.25
2022-08-26T05:18:17.398Z,17.36
2022-08-26T05:19:21.046Z,17.31
2022-08-26T05:20:17.461Z,17.3
2022-08-26T05:21:18.439Z,17.35
2022-08-26T05:22:20.680Z,17.42
2022-08-26T05:23:17.765Z,17.55
2022-08-26T05:24:17.373Z,17.49
2022-08-26T05:25:17.149Z,17.54
2022-08-26T05:26:25.695Z,17.6
2022-08-26T05:27:17.159Z,17.58
2022-08-26T05:28:17.902Z,17.69
2022-08-26T05:29:17.067Z,17.63
2022-08-26T05:30:17.064Z,17.68
2022-08-26T05:31:20.630Z,17.81
2022-08-26T05:32:17.307Z,17.81
2022-08-26T05:33:17.362Z,17.92
2022-08-26T05:34:17.436Z,17.9
2022-08-26T05:35:18.104Z,17.95
2022-08-26T05:36:17.870Z,17.98
2022-08-26T05:37:19.165Z,17.99
2022-08-26T05:38:17.571Z,18.06
2022-08-26T05:39:17.270Z,18.06
2022-08-26T05:40:17.264Z,18.06
2022-08-26T05:41:19.847Z,18.01
2022-08-26T05:42:17.521Z,18.03
2022-08-26T05:43:16.733Z,18.17
2022-08-26T05:44:18.816Z,18.05
2022-08-26T05:45:17.326Z,18.2
2022-08-26T05:46:17.548Z,18.2
2022-08-26T05:47:17.240Z,18.17
2022-08-26T05:48:18.533Z,18.27
2022-08-26T05:49:18.109Z,18.34
2022-08-26T05:50:17.209Z,18.24
2022-08-26T05:51:18.578Z,18.23
2022-08-26T05:52:17.534Z,18.26
2022-08-26T05:53:19.886Z,18.31
2022-08-26T05:54:23.742Z,18.38
2022-08-26T05:55:18.640Z,18.32
2022-08-26T05:56:16.678Z,18.36
2022-08-26T05:57:17.187Z,18.39
2022-08-26T05:58:19.832Z,18.5
2022-08-26T05:59:26.294Z,18.57
2022-08-26T06:00:16.913Z,18.57
2022-08-26T06:01:16.863Z,18.57
2022-08-26T06:02:19.148Z,18.68
2022-08-26T06:03:17.615Z,18.66
2022-08-26T06:04:17.267Z,18.75
2022-08-26T06:05:17.799Z,18.74
2022-08-26T06:06:16.875Z,18.78
2022-08-26T06:07:18.477Z,18.9
2022-08-26T06:08:21.314Z,18.89
2022-08-26T06:09:19.574Z,18.91
2022-08-26T06:10:37.002Z,19.02
2022-08-26T06:11:23.101Z,18.97
2022-08-26T06:12:20.688Z,18.97
2022-08-26T06:13:17.795Z,18.96
2022-08-26T06:14:16.833Z,19.07
2022-08-26T06:15:20.102Z,19.05
2022-08-26T06:16:17.635Z,19.07
2022-08-26T06:17:17.796Z,19.07
2022-08-26T06:18:16.569Z,18.99
2022-08-26T06:19:17.070Z,19.07
2022-08-26T06:20:17.059Z,19.09
2022-08-26T06:21:17.059Z,19.13
2022-08-26T06:22:22.499Z,19.19
2022-08-26T06:23:16.789Z,19.15
2022-08-26T06:24:17.040Z,19.16
2022-08-26T06:25:17.041Z,19.27
2022-08-26T06:26:17.095Z,19.2
2022-08-26T06:27:18.011Z,19.3
2022-08-26T06:28:18.159Z,19.35
2022-08-26T06:29:28.399Z,19.42
2022-08-26T06:30:17.611Z,19.45
2022-08-26T06:31:16.779Z,19.52
2022-08-26T06:32:16.756Z,19.52
2022-08-26T06:33:16.753Z,19.55
2022-08-26T06:34:17.875Z,19.57
2022-08-26T06:35:16.755Z,19.71
2022-08-26T06:36:21.081Z,19.75
2022-08-26T06:37:17.653Z,19.8
2022-08-26T06:38:16.592Z,19.79
2022-08-26T06:39:16.720Z,19.86
2022-08-26T06:40:16.642Z,19.89
2022-08-26T06:41:17.195Z,19.97
2022-08-26T06:42:17.353Z,19.9
2022-08-26T06:43:16.705Z,20.04
2022-08-26T06:44:16.709Z,20.05
2022-08-26T06:45:16.699Z,20.08
2022-08-26T06:46:17.107Z,20.19
2022-08-26T06:47:16.701Z,20.25
2022-08-26T06:48:17.218Z,20.35
2022-08-26T06:49:20.465Z,20.54
2022-08-26T06:50:16.681Z,20.61
2022-08-26T06:51:16.420Z,20.94
2022-08-26T06:52:24.263Z,21.28
2022-08-26T06:53:18.286Z,21.77
2022-08-26T06:54:16.664Z,22.26
2022-08-26T06:55:16.663Z,22.79
2022-08-26T06:56:17.256Z,23.22
2022-08-26T06:57:19.177Z,23.34
2022-08-26T06:58:18.046Z,23.57
2022-08-26T06:59:17.081Z,23.74
2022-08-26T07:00:17.159Z,23.89
2022-08-26T07:01:16.930Z,23.85
2022-08-26T07:02:20.784Z,23.71
2022-08-26T07:03:17.974Z,23.6
2022-08-26T07:04:20.393Z,23.52
2022-08-26T07:05:16.902Z,23.44
2022-08-26T07:06:18.940Z,23.56
2022-08-26T07:07:16.898Z,23.71
2022-08-26T07:08:16.748Z,24
2022-08-26T07:09:18.393Z,24.48
2022-08-26T07:10:16.620Z,24.9
2022-08-26T07:11:16.871Z,25.54
2022-08-26T07:12:18.048Z,26
2022-08-26T07:13:16.369Z,26.53
2022-08-26T07:14:16.898Z,27.06
2022-08-26T07:15:17.155Z,27.61
2022-08-26T07:16:19.126Z,27.98
2022-08-26T07:17:18.903Z,28.28
2022-08-26T07:18:16.615Z,28.54
2022-08-26T07:19:27.518Z,28.65
2022-08-26T07:20:16.617Z,28.55
2022-08-26T07:21:16.844Z,28.36
2022-08-26T07:22:16.625Z,28.21
2022-08-26T07:23:19.443Z,28.02
2022-08-26T07:24:17.313Z,27.71
2022-08-26T07:25:17.400Z,27.41
2022-08-26T07:26:16.914Z,26.97
2022-08-26T07:27:16.730Z,26.96
2022-08-26T07:28:16.369Z,27.09
2022-08-26T07:29:16.914Z,27.06
2022-08-26T07:30:19.181Z,27.01
2022-08-26T07:31:17.016Z,26.9
2022-08-26T07:32:16.540Z,26.67
2022-08-26T07:33:16.625Z,26.5
2022-08-26T07:34:16.372Z,26.31
2022-08-26T07:35:16.889Z,26.19
2022-08-26T07:36:16.628Z,25.91
2022-08-26T07:37:17.605Z,25.79
2022-08-26T07:38:17.830Z,25.57
2022-08-26T07:39:18.039Z,25.41
2022-08-26T07:40:18.429Z,25.19
2022-08-26T07:41:16.652Z,25.12
2022-08-26T07:42:16.375Z,25.01
2022-08-26T07:43:17.352Z,25.04
2022-08-26T07:44:16.406Z,24.83
2022-08-26T07:45:16.634Z,24.92
2022-08-26T07:46:30.118Z,24.89
2022-08-26T07:47:29.778Z,24.89
2022-08-26T07:48:16.887Z,24.94
2022-08-26T07:49:17.535Z,24.93
2022-08-26T07:50:17.656Z,24.94
2022-08-26T07:51:16.881Z,24.93
2022-08-26T07:52:17.138Z,24.87
2022-08-26T07:53:20.511Z,24.8
2022-08-26T07:54:17.518Z,24.85
2022-08-26T07:55:16.633Z,24.89
2022-08-26T07:56:16.635Z,24.9
2022-08-26T07:57:16.887Z,24.96
2022-08-26T07:58:16.638Z,25.05
2022-08-26T07:59:19.616Z,25.01
2022-08-26T08:00:17.983Z,25.17
2022-08-26T08:01:18.594Z,25.22
2022-08-26T08:02:16.731Z,25.27
2022-08-26T08:03:18.873Z,25.34
2022-08-26T08:04:19.425Z,25.34
2022-08-26T08:05:19.392Z,25.38
2022-08-26T08:06:16.389Z,25.39
2022-08-26T08:07:16.652Z,25.51
2022-08-26T08:08:34.003Z,25.57
2022-08-26T08:09:18.542Z,25.48
2022-08-26T08:10:18.165Z,25.47
2022-08-26T08:11:16.645Z,25.56
2022-08-26T08:12:20.285Z,25.44
2022-08-26T08:13:20.835Z,25.57
2022-08-26T08:14:16.895Z,25.45
2022-08-26T08:15:16.995Z,25.44
2022-08-26T08:16:17.461Z,25.33
2022-08-26T08:17:18.053Z,25.3
2022-08-26T08:18:22.701Z,25.19
2022-08-26T08:19:16.677Z,25.15
2022-08-26T08:20:16.899Z,25.23
2022-08-26T08:21:26.590Z,25.27
2022-08-26T08:22:23.714Z,25.27
2022-08-26T08:23:16.536Z,25.22
2022-08-26T08:24:16.395Z,25.12
2022-08-26T08:25:17.921Z,25.07
2022-08-26T08:26:19.092Z,25.08
2022-08-26T08:27:23.641Z,25.27
2022-08-26T08:28:16.923Z,25.41
2022-08-26T08:29:17.356Z,25.57
2022-08-26T08:30:23.333Z,25.57
2022-08-26T08:31:33.189Z,25.7
2022-08-26T08:32:19.719Z,25.84
2022-08-26T08:33:17.950Z,25.94
2022-08-26T08:34:16.651Z,25.93
2022-08-26T08:35:16.665Z,25.96
2022-08-26T08:36:23.392Z,25.81
2022-08-26T08:37:16.655Z,25.76
2022-08-26T08:38:16.932Z,25.63
2022-08-26T08:39:16.653Z,25.44
2022-08-26T08:40:16.868Z,25.33
2022-08-26T08:41:16.401Z,25.27
2022-08-26T08:42:16.654Z,25.17
2022-08-26T08:43:17.072Z,25.17
2022-08-26T08:44:17.936Z,25.24
2022-08-26T08:45:18.923Z,25.24
2022-08-26T08:46:16.913Z,25.39
2022-08-26T08:47:16.871Z,25.51
2022-08-26T08:48:16.681Z,25.7
2022-08-26T08:49:18.861Z,25.86
2022-08-26T08:50:16.708Z,25.99
2022-08-26T08:51:17.100Z,26.17
2022-08-26T08:52:16.917Z,26.26
2022-08-26T08:53:16.767Z,26.32
2022-08-26T08:54:16.923Z,26.32
2022-08-26T08:55:21.147Z,26.3
2022-08-26T08:56:16.917Z,26.39
2022-08-26T08:57:16.939Z,26.39
2022-08-26T08:58:21.533Z,26.41
2022-08-26T08:59:16.730Z,26.52
2022-08-26T09:00:16.415Z,26.61
2022-08-26T09:01:17.342Z,26.76
2022-08-26T09:02:19.167Z,26.64
2022-08-26T09:03:16.671Z,26.81
2022-08-26T09:04:22.356Z,26.97
2022-08-26T09:05:20.073Z,27.04
2022-08-26T09:06:17.249Z,27.08
2022-08-26T09:07:16.672Z,27.15
2022-08-26T09:08:16.850Z,27.09
2022-08-26T09:09:16.765Z,27.13
2022-08-26T09:10:16.428Z,27.09
2022-08-26T09:11:16.677Z,26.94
2022-08-26T09:12:17.868Z,26.93
2022-08-26T09:13:27.616Z,26.74
2022-08-26T09:14:16.683Z,26.6
2022-08-26T09:15:16.939Z,26.39
2022-08-26T09:16:17.446Z,26.19
2022-08-26T09:17:16.828Z,25.88
2022-08-26T09:18:18.093Z,25.6
2022-08-26T09:19:18.916Z,25.51
2022-08-26T09:20:17.030Z,25.26
2022-08-26T09:21:16.438Z,25.2
2022-08-26T09:22:17.186Z,25.04
2022-08-26T09:23:16.438Z,24.83
2022-08-26T09:24:20.570Z,24.9
2022-08-26T09:25:16.711Z,24.66
2022-08-26T09:26:16.958Z,24.75
2022-08-26T09:27:16.978Z,24.56
2022-08-26T09:28:17.869Z,24.45
2022-08-26T09:29:17.213Z,24.45
2022-08-26T09:30:17.289Z,24.33
2022-08-26T09:31:16.792Z,24.29
2022-08-26T09:32:16.718Z,24.26
2022-08-26T09:33:19.855Z,24.22
2022-08-26T09:34:21.575Z,24.14
2022-08-26T09:35:17.203Z,24.12
2022-08-26T09:36:16.699Z,24.11
2022-08-26T09:37:17.489Z,24.02
2022-08-26T09:38:17.271Z,24.08
2022-08-26T09:39:17.051Z,24.09
2022-08-26T09:40:17.017Z,24.04
2022-08-26T09:41:17.691Z,23.99
2022-08-26T09:42:19.066Z,24.11
2022-08-26T09:43:22.103Z,24.17
2022-08-26T09:44:19.155Z,24.19
2022-08-26T09:45:17.016Z,24.15
2022-08-26T09:46:17.226Z,24.19
2022-08-26T09:47:17.114Z,24.17
2022-08-26T09:48:22.497Z,24.22
2022-08-26T09:49:16.726Z,24.18
2022-08-26T09:50:17.206Z,24.3
2022-08-26T09:51:20.974Z,24.33
2022-08-26T09:52:16.705Z,24.29
2022-08-26T09:53:17.590Z,24.36
2022-08-26T09:54:32.531Z,24.44
2022-08-26T09:55:18.005Z,24.39
2022-08-26T09:56:16.962Z,24.44
2022-08-26T09:57:16.975Z,24.55
2022-08-26T09:58:16.611Z,24.54
2022-08-26T09:59:21.274Z,24.52
2022-08-26T10:00:16.704Z,24.56
2022-08-26T10:01:17.800Z,24.61
2022-08-26T10:02:20.083Z,24.56
2022-08-26T10:03:22.265Z,24.58
2022-08-26T10:04:16.987Z,24.77
2022-08-26T10:05:16.956Z,24.66
2022-08-26T10:06:16.900Z,24.71
2022-08-26T10:07:20.553Z,24.67
2022-08-26T10:08:16.968Z,24.78
2022-08-26T10:09:16.851Z,24.74
2022-08-26T10:10:16.702Z,24.85
2022-08-26T10:11:16.954Z,24.89
2022-08-26T10:12:17.610Z,24.96
2022-08-26T10:13:16.706Z,25.02
2022-08-26T10:14:17.523Z,25.02
2022-08-26T10:15:16.706Z,25.22
2022-08-26T10:16:17.181Z,25.3
2022-08-26T10:17:16.801Z,25.37
2022-08-26T10:18:16.701Z,25.6
2022-08-26T10:19:18.187Z,25.64
2022-08-26T10:20:28.430Z,25.96
2022-08-26T10:21:20.355Z,26.01
2022-08-26T10:22:16.956Z,26.2
2022-08-26T10:23:18.335Z,26.31
2022-08-26T10:24:16.710Z,26.49
2022-08-26T10:25:16.706Z,26.61
2022-08-26T10:26:17.226Z,26.76
2022-08-26T10:27:16.451Z,26.82
2022-08-26T10:28:16.708Z,26.89
2022-08-26T10:29:16.780Z,27.12
2022-08-26T10:30:17.994Z,27.26
2022-08-26T10:31:16.965Z,27.3
2022-08-26T10:32:18.859Z,27.38
2022-08-26T10:33:18.037Z,27.45
2022-08-26T10:34:18.735Z,27.42
2022-08-26T10:35:16.513Z,27.53
2022-08-26T10:36:22.521Z,27.46
2022-08-26T10:37:20.893Z,27.43
2022-08-26T10:38:17.739Z,27.45
2022-08-26T10:39:18.698Z,27.53
2022-08-26T10:40:17.627Z,27.46
2022-08-26T10:41:20.405Z,27.53
2022-08-26T10:42:17.189Z,27.59
2022-08-26T10:43:17.011Z,27.59
2022-08-26T10:44:18.733Z,27.65
2022-08-26T10:45:19.640Z,27.71
2022-08-26T10:46:17.185Z,27.69
2022-08-26T10:47:16.993Z,27.72
2022-08-26T10:48:16.878Z,27.69
2022-08-26T10:49:16.532Z,27.69
2022-08-26T10:50:20.101Z,27.79
2022-08-26T10:51:16.798Z,27.79
2022-08-26T10:52:21.724Z,27.71
2022-08-26T10:53:16.727Z,27.69
2022-08-26T10:54:16.746Z,27.66
2022-08-26T10:55:16.891Z,27.52
2022-08-26T10:56:23.834Z,27.42
2022-08-26T10:57:19.003Z,27.26
2022-08-26T10:58:32.524Z,27.18
2022-08-26T10:59:17.502Z,27.04
2022-08-26T11:00:17.383Z,26.91
2022-08-26T11:01:22.648Z,26.81
2022-08-26T11:02:16.689Z,26.72
2022-08-26T11:03:26.351Z,26.67
2022-08-26T11:04:17.793Z,26.61
2022-08-26T11:05:16.768Z,26.64
2022-08-26T11:06:16.864Z,26.63
2022-08-26T11:07:16.777Z,26.57
2022-08-26T11:08:16.519Z,26.49
2022-08-26T11:09:18.602Z,26.53
2022-08-26T11:10:17.448Z,26.56
2022-08-26T11:11:21.825Z,26.45
2022-08-26T11:12:16.778Z,26.6
2022-08-26T11:13:16.778Z,26.6
2022-08-26T11:14:17.736Z,26.5
2022-08-26T11:15:18.855Z,26.54
2022-08-26T11:16:17.335Z,26.59
2022-08-26T11:17:16.536Z,26.63
2022-08-26T11:18:16.787Z,26.61
2022-08-26T11:19:18.190Z,26.67
2022-08-26T11:20:19.970Z,26.59
2022-08-26T11:21:17.643Z,26.52
2022-08-26T11:22:17.464Z,26.41
2022-08-26T11:23:17.277Z,26.35
2022-08-26T11:24:17.081Z,26.37
2022-08-26T11:25:17.639Z,26.3
2022-08-26T11:26:57.419Z,26.27
2022-08-26T11:27:22.575Z,26.26
2022-08-26T11:28:16.801Z,26.3
2022-08-26T11:29:18.661Z,26.16
2022-08-26T11:30:20.721Z,26.15
2022-08-26T11:31:17.037Z,26.07
2022-08-26T11:32:16.590Z,26.06
2022-08-26T11:33:20.141Z,26.03
2022-08-26T11:34:16.893Z,26.01
2022-08-26T11:35:19.758Z,25.93
2022-08-26T11:36:17.161Z,25.94
2022-08-26T11:37:17.000Z,25.97
2022-08-26T11:38:17.349Z,25.91
2022-08-26T11:39:16.817Z,25.88
2022-08-26T11:40:17.118Z,25.85
2022-08-26T11:41:17.292Z,25.84
2022-08-26T11:42:20.117Z,25.79
2022-08-26T11:43:17.707Z,25.78
2022-08-26T11:44:17.440Z,25.78
2022-08-26T11:45:17.405Z,25.76
2022-08-26T11:46:16.785Z,25.69
2022-08-26T11:47:17.870Z,25.69
2022-08-26T11:48:17.086Z,25.59
2022-08-26T11:49:17.399Z,25.59
2022-08-26T11:50:16.698Z,25.51
2022-08-26T11:51:18.241Z,25.54
2022-08-26T11:52:17.108Z,25.51
2022-08-26T11:53:16.834Z,25.45
2022-08-26T11:54:18.086Z,25.27
2022-08-26T11:55:17.090Z,24.87
2022-08-26T11:56:16.845Z,24.58
2022-08-26T11:57:16.961Z,24.21
2022-08-26T11:58:17.548Z,23.85
2022-08-26T11:59:17.098Z,23.5
2022-08-26T12:00:24.921Z,23.38
2022-08-26T12:01:19.447Z,23.26
2022-08-26T12:02:16.589Z,23.04
2022-08-26T12:03:17.393Z,22.91
2022-08-26T12:04:18.475Z,22.76
2022-08-26T12:05:16.839Z,22.63
2022-08-26T12:06:18.815Z,22.66
2022-08-26T12:07:16.992Z,22.55
2022-08-26T12:08:16.840Z,22.42
2022-08-26T12:09:17.528Z,22.44
2022-08-26T12:10:17.269Z,22.49
2022-08-26T12:11:17.288Z,22.44
2022-08-26T12:12:17.109Z,22.52
2022-08-26T12:13:18.258Z,22.39
2022-08-26T12:14:18.190Z,22.45
2022-08-26T12:15:17.088Z,22.31
2022-08-26T12:16:18.119Z,22.3
2022-08-26T12:17:17.905Z,22.29
2022-08-26T12:18:17.688Z,22.29
2022-08-26T12:19:16.577Z,22.31
2022-08-26T12:20:17.859Z,22.33
2022-08-26T12:21:18.491Z,22.29
2022-08-26T12:22:16.672Z,22.31
2022-08-26T12:23:18.275Z,22.31
2022-08-26T12:24:18.592Z,22.44
2022-08-26T12:25:18.599Z,22.38
2022-08-26T12:26:16.568Z,22.33
2022-08-26T12:27:17.537Z,22.33
2022-08-26T12:28:23.154Z,22.31
2022-08-26T12:29:31.013Z,22.39
2022-08-26T12:30:21.673Z,22.45
2022-08-26T12:31:20.012Z,22.51
2022-08-26T12:32:16.818Z,22.55
2022-08-26T12:33:26.992Z,22.51
2022-08-26T12:34:22.636Z,22.61
2022-08-26T12:35:17.039Z,22.6
2022-08-26T12:36:17.158Z,22.69
2022-08-26T12:37:17.029Z,22.6
2022-08-26T12:38:17.347Z,22.64
2022-08-26T12:39:16.554Z,22.76
2022-08-26T12:40:17.058Z,22.76
2022-08-26T12:41:16.557Z,22.88
2022-08-26T12:42:16.800Z,22.86
2022-08-26T12:43:16.803Z,22.96
2022-08-26T12:44:16.818Z,22.92
2022-08-26T12:45:17.055Z,22.89
2022-08-26T12:46:16.642Z,22.85
2022-08-26T12:47:30.926Z,22.91
2022-08-26T12:48:16.538Z,22.92
2022-08-26T12:49:17.053Z,23.03
2022-08-26T12:50:17.040Z,23.01
2022-08-26T12:51:16.789Z,22.97
2022-08-26T12:52:16.787Z,23.01
2022-08-26T12:53:16.845Z,22.99
2022-08-26T12:54:16.790Z,23.01
2022-08-26T12:55:19.589Z,23
2022-08-26T12:56:17.041Z,22.96
2022-08-26T12:57:17.048Z,23.03
2022-08-26T12:58:17.042Z,23.01
2022-08-26T12:59:19.513Z,23.04
2022-08-26T13:00:20.457Z,23.15
2022-08-26T13:01:17.227Z,23.15
2022-08-26T13:02:17.238Z,23.14
2022-08-26T13:03:19.040Z,23.09
2022-08-26T13:04:17.025Z,23.15
2022-08-26T13:05:16.771Z,23.14
2022-08-26T13:06:20.745Z,23.06
2022-08-26T13:07:16.773Z,23.01
2022-08-26T13:08:16.771Z,23.01
2022-08-26T13:09:17.027Z,23.14
2022-08-26T13:10:16.766Z,23.18
2022-08-26T13:11:16.772Z,23.14
2022-08-26T13:12:16.762Z,23.1